sensor_id;sensor_type;location;lat;lon;timestamp;pressure;altitude;pressure_sealevel;temperature;humidity
60642;BME280;46837;52.446;-1.930;2022-09-20T00:00:09;101199.57;;;14.73;72.38
60642;BME280;46837;52.446;-1.930;2022-09-20T00:01:13;101198.20;;;14.74;72.45
60642;BME280;46837;52.446;-1.930;2022-09-20T00:02:09;101200.55;;;14.72;72.55
60642;BME280;46837;52.446;-1.930;2022-09-20T00:03:09;101200.78;;;14.75;72.46
60642;BME280;46837;52.446;-1.930;2022-09-20T00:04:09;101197.87;;;14.76;72.42
60642;BME280;46837;52.446;-1.930;2022-09-20T00:05:10;101191.98;;;14.76;72.42
60642;BME280;46837;52.446;-1.930;2022-09-20T00:06:11;101196.38;;;14.73;72.65
60642;BME280;46837;52.446;-1.930;2022-09-20T00:07:09;101196.32;;;14.72;72.63
60642;BME280;46837;52.446;-1.930;2022-09-20T00:08:12;101196.15;;;14.74;72.52
60642;BME280;46837;52.446;-1.930;2022-09-20T00:09:09;101195.39;;;14.74;72.61
60642;BME280;46837;52.446;-1.930;2022-09-20T00:10:09;101195.60;;;14.74;72.62
60642;BME280;46837;52.446;-1.930;2022-09-20T00:11:13;101196.27;;;14.76;72.51
60642;BME280;46837;52.446;-1.930;2022-09-20T00:12:09;101194.36;;;14.77;72.45
60642;BME280;46837;52.446;-1.930;2022-09-20T00:13:10;101195.56;;;14.79;72.35
60642;BME280;46837;52.446;-1.930;2022-09-20T00:14:10;101196.93;;;14.78;72.47
60642;BME280;46837;52.446;-1.930;2022-09-20T00:15:09;101199.20;;;14.79;72.44
60642;BME280;46837;52.446;-1.930;2022-09-20T00:16:10;101199.64;;;14.80;72.47
60642;BME280;46837;52.446;-1.930;2022-09-20T00:17:09;101201.41;;;14.81;72.47
60642;BME280;46837;52.446;-1.930;2022-09-20T00:18:09;101198.43;;;14.83;72.40
60642;BME280;46837;52.446;-1.930;2022-09-20T00:19:11;101195.79;;;14.83;72.44
60642;BME280;46837;52.446;-1.930;2022-09-20T00:20:09;101200.64;;;14.83;72.47
60642;BME280;46837;52.446;-1.930;2022-09-20T00:21:14;101196.57;;;14.84;72.51
60642;BME280;46837;52.446;-1.930;2022-09-20T00:22:09;101196.34;;;14.82;72.56
60642;BME280;46837;52.446;-1.930;2022-09-20T00:23:09;101195.01;;;14.82;72.75
60642;BME280;46837;52.446;-1.930;2022-09-20T00:24:09;101195.70;;;14.85;72.75
60642;BME280;46837;52.446;-1.930;2022-09-20T00:25:09;101194.02;;;14.79;72.95
60642;BME280;46837;52.446;-1.930;2022-09-20T00:26:09;101190.66;;;14.76;73.02
60642;BME280;46837;52.446;-1.930;2022-09-20T00:27:09;101190.99;;;14.78;72.86
60642;BME280;46837;52.446;-1.930;2022-09-20T00:28:11;101192.79;;;14.74;73.09
60642;BME280;46837;52.446;-1.930;2022-09-20T00:29:09;101192.14;;;14.75;72.97
60642;BME280;46837;52.446;-1.930;2022-09-20T00:30:09;101191.88;;;14.76;72.84
60642;BME280;46837;52.446;-1.930;2022-09-20T00:31:09;101193.97;;;14.77;72.75
60642;BME280;46837;52.446;-1.930;2022-09-20T00:32:09;101198.69;;;14.78;72.71
60642;BME280;46837;52.446;-1.930;2022-09-20T00:33:09;101197.09;;;14.78;72.71
60642;BME280;46837;52.446;-1.930;2022-09-20T00:34:13;101200.95;;;14.76;72.74
60642;BME280;46837;52.446;-1.930;2022-09-20T00:35:12;101200.84;;;14.76;72.84
60642;BME280;46837;52.446;-1.930;2022-09-20T00:36:09;101201.23;;;14.76;72.87
60642;BME280;46837;52.446;-1.930;2022-09-20T00:37:09;101200.79;;;14.76;72.82
60642;BME280;46837;52.446;-1.930;2022-09-20T00:38:09;101196.54;;;14.75;72.87
60642;BME280;46837;52.446;-1.930;2022-09-20T00:39:11;101198.75;;;14.76;72.81
60642;BME280;46837;52.446;-1.930;2022-09-20T00:40:18;101200.57;;;14.73;73.00
60642;BME280;46837;52.446;-1.930;2022-09-20T00:41:09;101197.80;;;14.74;72.88
60642;BME280;46837;52.446;-1.930;2022-09-20T00:42:13;101198.48;;;14.76;72.76
60642;BME280;46837;52.446;-1.930;2022-09-20T00:43:13;101197.86;;;14.75;72.75
60642;BME280;46837;52.446;-1.930;2022-09-20T00:46:20;101200.29;;;14.73;72.88
60642;BME280;46837;52.446;-1.930;2022-09-20T00:47:18;101202.32;;;14.70;72.94
60642;BME280;46837;52.446;-1.930;2022-09-20T00:49:17;101202.04;;;14.69;72.98
60642;BME280;46837;52.446;-1.930;2022-09-20T00:51:12;101201.91;;;14.65;73.06
60642;BME280;46837;52.446;-1.930;2022-09-20T00:52:09;101202.36;;;14.63;73.12
60642;BME280;46837;52.446;-1.930;2022-09-20T00:53:14;101203.00;;;14.64;73.06
60642;BME280;46837;52.446;-1.930;2022-09-20T00:54:10;101201.41;;;14.64;73.07
60642;BME280;46837;52.446;-1.930;2022-09-20T00:55:09;101204.01;;;14.63;73.09
60642;BME280;46837;52.446;-1.930;2022-09-20T00:56:15;101203.28;;;14.65;73.06
60642;BME280;46837;52.446;-1.930;2022-09-20T00:57:09;101205.76;;;14.65;72.99
60642;BME280;46837;52.446;-1.930;2022-09-20T00:58:09;101208.02;;;14.66;72.95
60642;BME280;46837;52.446;-1.930;2022-09-20T00:59:17;101209.39;;;14.67;72.86
60642;BME280;46837;52.446;-1.930;2022-09-20T01:00:09;101207.98;;;14.67;72.83
60642;BME280;46837;52.446;-1.930;2022-09-20T01:01:09;101211.94;;;14.67;72.86
60642;BME280;46837;52.446;-1.930;2022-09-20T01:02:19;101213.37;;;14.66;72.85
60642;BME280;46837;52.446;-1.930;2022-09-20T01:03:10;101213.75;;;14.66;72.94
60642;BME280;46837;52.446;-1.930;2022-09-20T01:04:09;101212.31;;;14.66;72.86
60642;BME280;46837;52.446;-1.930;2022-09-20T01:05:09;101213.18;;;14.64;72.93
60642;BME280;46837;52.446;-1.930;2022-09-20T01:06:09;101214.39;;;14.64;72.86
60642;BME280;46837;52.446;-1.930;2022-09-20T01:07:10;101213.79;;;14.62;72.96
60642;BME280;46837;52.446;-1.930;2022-09-20T01:08:09;101215.16;;;14.62;72.93
60642;BME280;46837;52.446;-1.930;2022-09-20T01:09:09;101212.08;;;14.62;72.78
60642;BME280;46837;52.446;-1.930;2022-09-20T01:10:09;101213.84;;;14.61;72.77
60642;BME280;46837;52.446;-1.930;2022-09-20T01:11:09;101213.84;;;14.60;72.77
60642;BME280;46837;52.446;-1.930;2022-09-20T01:12:12;101212.56;;;14.58;72.92
60642;BME280;46837;52.446;-1.930;2022-09-20T01:13:09;101214.86;;;14.57;72.90
60642;BME280;46837;52.446;-1.930;2022-09-20T01:14:09;101214.19;;;14.54;73.05
60642;BME280;46837;52.446;-1.930;2022-09-20T01:15:09;101213.48;;;14.54;72.99
60642;BME280;46837;52.446;-1.930;2022-09-20T01:16:09;101209.85;;;14.51;72.98
60642;BME280;46837;52.446;-1.930;2022-09-20T01:17:09;101208.09;;;14.48;73.11
60642;BME280;46837;52.446;-1.930;2022-09-20T01:18:09;101210.17;;;14.46;73.19
60642;BME280;46837;52.446;-1.930;2022-09-20T01:19:27;101211.44;;;14.47;73.13
60642;BME280;46837;52.446;-1.930;2022-09-20T01:20:14;101206.53;;;14.43;73.15
60642;BME280;46837;52.446;-1.930;2022-09-20T01:21:09;101205.38;;;14.41;73.22
60642;BME280;46837;52.446;-1.930;2022-09-20T01:22:19;101206.75;;;14.38;73.33
60642;BME280;46837;52.446;-1.930;2022-09-20T01:24:19;101206.68;;;14.35;73.46
60642;BME280;46837;52.446;-1.930;2022-09-20T01:25:14;101206.73;;;14.36;73.38
60642;BME280;46837;52.446;-1.930;2022-09-20T01:28:09;101209.90;;;14.32;73.45
60642;BME280;46837;52.446;-1.930;2022-09-20T01:29:34;101208.47;;;14.32;73.41
60642;BME280;46837;52.446;-1.930;2022-09-20T01:32:11;101211.29;;;14.34;73.31
60642;BME280;46837;52.446;-1.930;2022-09-20T01:34:10;101211.93;;;14.30;73.49
60642;BME280;46837;52.446;-1.930;2022-09-20T01:35:09;101214.39;;;14.29;73.60
60642;BME280;46837;52.446;-1.930;2022-09-20T01:36:13;101214.50;;;14.29;73.62
60642;BME280;46837;52.446;-1.930;2022-09-20T01:37:18;101214.39;;;14.29;73.64
60642;BME280;46837;52.446;-1.930;2022-09-20T01:42:09;101214.52;;;14.22;73.81
60642;BME280;46837;52.446;-1.930;2022-09-20T01:44:17;101210.95;;;14.20;73.79
60642;BME280;46837;52.446;-1.930;2022-09-20T01:45:22;101216.23;;;14.20;73.75
60642;BME280;46837;52.446;-1.930;2022-09-20T01:49:19;101214.45;;;14.17;73.80
60642;BME280;46837;52.446;-1.930;2022-09-20T01:59:22;101214.60;;;14.13;73.96
60642;BME280;46837;52.446;-1.930;2022-09-20T02:00:13;101214.38;;;14.13;73.94
60642;BME280;46837;52.446;-1.930;2022-09-20T02:06:16;101213.32;;;14.10;73.90
60642;BME280;46837;52.446;-1.930;2022-09-20T02:07:17;101211.71;;;14.06;74.07
60642;BME280;46837;52.446;-1.930;2022-09-20T02:08:18;101214.36;;;14.07;74.01
60642;BME280;46837;52.446;-1.930;2022-09-20T02:11:19;101214.54;;;14.02;74.13
60642;BME280;46837;52.446;-1.930;2022-09-20T02:13:12;101215.89;;;13.96;74.24
60642;BME280;46837;52.446;-1.930;2022-09-20T02:17:13;101213.68;;;13.88;74.51
60642;BME280;46837;52.446;-1.930;2022-09-20T02:25:16;101212.49;;;13.89;74.34
60642;BME280;46837;52.446;-1.930;2022-09-20T02:31:14;101212.62;;;13.94;74.17
60642;BME280;46837;52.446;-1.930;2022-09-20T02:39:19;101212.71;;;13.83;74.30
60642;BME280;46837;52.446;-1.930;2022-09-20T02:41:40;101211.37;;;13.77;74.36
60642;BME280;46837;52.446;-1.930;2022-09-20T02:43:17;101216.21;;;13.80;74.27
60642;BME280;46837;52.446;-1.930;2022-09-20T02:48:09;101217.89;;;13.84;74.12
60642;BME280;46837;52.446;-1.930;2022-09-20T02:51:19;101213.22;;;13.82;74.16
60642;BME280;46837;52.446;-1.930;2022-09-20T02:53:16;101212.32;;;13.80;74.18
60642;BME280;46837;52.446;-1.930;2022-09-20T03:00:22;101209.93;;;13.84;73.98
60642;BME280;46837;52.446;-1.930;2022-09-20T03:05:17;101204.65;;;13.76;74.25
60642;BME280;46837;52.446;-1.930;2022-09-20T03:08:14;101202.94;;;13.72;74.27
60642;BME280;46837;52.446;-1.930;2022-09-20T03:10:15;101204.07;;;13.76;74.08
60642;BME280;46837;52.446;-1.930;2022-09-20T03:12:17;101203.97;;;13.79;74.01
60642;BME280;46837;52.446;-1.930;2022-09-20T03:15:19;101201.53;;;13.77;73.97
60642;BME280;46837;52.446;-1.930;2022-09-20T03:18:14;101201.92;;;13.76;73.92
60642;BME280;46837;52.446;-1.930;2022-09-20T03:19:22;101198.28;;;13.76;73.93
60642;BME280;46837;52.446;-1.930;2022-09-20T03:22:18;101195.27;;;13.69;74.14
60642;BME280;46837;52.446;-1.930;2022-09-20T03:23:19;101196.16;;;13.70;74.16
60642;BME280;46837;52.446;-1.930;2022-09-20T03:25:21;101192.91;;;13.70;74.27
60642;BME280;46837;52.446;-1.930;2022-09-20T03:28:21;101190.47;;;13.72;74.22
60642;BME280;46837;52.446;-1.930;2022-09-20T03:35:19;101186.39;;;13.71;74.38
60642;BME280;46837;52.446;-1.930;2022-09-20T03:38:20;101183.83;;;13.65;74.63
60642;BME280;46837;52.446;-1.930;2022-09-20T03:41:20;101177.86;;;13.62;74.79
60642;BME280;46837;52.446;-1.930;2022-09-20T03:42:14;101177.04;;;13.60;74.79
60642;BME280;46837;52.446;-1.930;2022-09-20T03:46:16;101176.52;;;13.55;74.99
60642;BME280;46837;52.446;-1.930;2022-09-20T03:49:29;101173.90;;;13.52;75.04
60642;BME280;46837;52.446;-1.930;2022-09-20T04:00:15;101172.10;;;13.53;74.92
60642;BME280;46837;52.446;-1.930;2022-09-20T04:04:18;101175.45;;;13.53;74.81
60642;BME280;46837;52.446;-1.930;2022-09-20T04:05:14;101171.48;;;13.50;74.93
60642;BME280;46837;52.446;-1.930;2022-09-20T04:08:20;101169.97;;;13.41;75.23
60642;BME280;46837;52.446;-1.930;2022-09-20T04:10:23;101169.53;;;13.32;75.57
60642;BME280;46837;52.446;-1.930;2022-09-20T04:14:15;101169.24;;;13.29;75.57
60642;BME280;46837;52.446;-1.930;2022-09-20T04:16:16;101166.88;;;13.29;75.54
60642;BME280;46837;52.446;-1.930;2022-09-20T04:18:22;101168.10;;;13.30;75.46
60642;BME280;46837;52.446;-1.930;2022-09-20T04:20:17;101168.14;;;13.29;75.48
60642;BME280;46837;52.446;-1.930;2022-09-20T04:22:09;101166.25;;;13.28;75.50
60642;BME280;46837;52.446;-1.930;2022-09-20T04:26:09;101164.02;;;13.29;75.32
60642;BME280;46837;52.446;-1.930;2022-09-20T04:28:14;101164.62;;;13.29;75.25
60642;BME280;46837;52.446;-1.930;2022-09-20T04:29:32;101160.36;;;13.25;75.36
60642;BME280;46837;52.446;-1.930;2022-09-20T04:30:16;101163.83;;;13.23;75.47
60642;BME280;46837;52.446;-1.930;2022-09-20T04:31:58;101163.17;;;13.23;75.42
60642;BME280;46837;52.446;-1.930;2022-09-20T04:32:14;101159.17;;;13.23;75.35
60642;BME280;46837;52.446;-1.930;2022-09-20T04:34:16;101156.09;;;13.17;75.62
60642;BME280;46837;52.446;-1.930;2022-09-20T04:38:13;101155.80;;;13.08;75.78
60642;BME280;46837;52.446;-1.930;2022-09-20T04:41:04;101153.27;;;13.06;75.69
60642;BME280;46837;52.446;-1.930;2022-09-20T04:41:32;101156.21;;;13.06;75.58
60642;BME280;46837;52.446;-1.930;2022-09-20T04:43:23;101154.69;;;13.05;75.52
60642;BME280;46837;52.446;-1.930;2022-09-20T04:49:19;101157.26;;;12.98;75.53
60642;BME280;46837;52.446;-1.930;2022-09-20T04:51:19;101158.97;;;12.94;75.75
60642;BME280;46837;52.446;-1.930;2022-09-20T04:53:17;101159.45;;;12.93;75.72
60642;BME280;46837;52.446;-1.930;2022-09-20T04:56:18;101156.01;;;12.89;75.83
60642;BME280;46837;52.446;-1.930;2022-09-20T05:00:15;101157.57;;;12.86;75.84
60642;BME280;46837;52.446;-1.930;2022-09-20T05:13:19;101165.32;;;12.71;76.00
60642;BME280;46837;52.446;-1.930;2022-09-20T05:14:18;101167.57;;;12.69;75.99
60642;BME280;46837;52.446;-1.930;2022-09-20T05:16:17;101171.46;;;12.60;76.37
60642;BME280;46837;52.446;-1.930;2022-09-20T05:19:22;101177.30;;;12.56;76.47
60642;BME280;46837;52.446;-1.930;2022-09-20T05:28:18;101182.48;;;12.54;76.34
60642;BME280;46837;52.446;-1.930;2022-09-20T05:29:15;101180.12;;;12.54;76.34
60642;BME280;46837;52.446;-1.930;2022-09-20T05:34:15;101181.49;;;12.49;76.45
60642;BME280;46837;52.446;-1.930;2022-09-20T05:35:15;101182.29;;;12.47;76.50
60642;BME280;46837;52.446;-1.930;2022-09-20T05:41:17;101186.23;;;12.41;76.59
60642;BME280;46837;52.446;-1.930;2022-09-20T05:43:16;101187.54;;;12.41;76.53
60642;BME280;46837;52.446;-1.930;2022-09-20T05:47:16;101192.16;;;12.37;76.60
60642;BME280;46837;52.446;-1.930;2022-09-20T05:48:13;101192.88;;;12.39;76.43
60642;BME280;46837;52.446;-1.930;2022-09-20T05:53:28;101196.86;;;12.37;76.54
60642;BME280;46837;52.446;-1.930;2022-09-20T05:55:19;101195.98;;;12.35;76.48
60642;BME280;46837;52.446;-1.930;2022-09-20T05:57:20;101193.36;;;12.37;76.42
60642;BME280;46837;52.446;-1.930;2022-09-20T06:04:14;101203.71;;;12.35;76.21
60642;BME280;46837;52.446;-1.930;2022-09-20T06:10:16;101205.96;;;12.29;76.55
60642;BME280;46837;52.446;-1.930;2022-09-20T06:15:18;101210.87;;;12.34;76.37
60642;BME280;46837;52.446;-1.930;2022-09-20T06:19:21;101214.37;;;12.34;76.37
60642;BME280;46837;52.446;-1.930;2022-09-20T06:22:16;101211.74;;;12.26;76.67
60642;BME280;46837;52.446;-1.930;2022-09-20T06:23:09;101216.28;;;12.25;76.78
60642;BME280;46837;52.446;-1.930;2022-09-20T06:24:19;101214.12;;;12.23;76.89
60642;BME280;46837;52.446;-1.930;2022-09-20T06:26:13;101216.23;;;12.25;76.89
60642;BME280;46837;52.446;-1.930;2022-09-20T06:27:14;101218.15;;;12.21;77.03
60642;BME280;46837;52.446;-1.930;2022-09-20T06:29:11;101218.36;;;12.20;77.05
60642;BME280;46837;52.446;-1.930;2022-09-20T06:30:16;101222.11;;;12.21;77.08
60642;BME280;46837;52.446;-1.930;2022-09-20T06:31:10;101223.54;;;12.23;77.06
60642;BME280;46837;52.446;-1.930;2022-09-20T06:32:09;101223.14;;;12.25;76.97
60642;BME280;46837;52.446;-1.930;2022-09-20T06:33:16;101224.39;;;12.25;76.96
60642;BME280;46837;52.446;-1.930;2022-09-20T06:34:12;101227.26;;;12.26;76.92
60642;BME280;46837;52.446;-1.930;2022-09-20T06:35:09;101227.46;;;12.24;77.09
60642;BME280;46837;52.446;-1.930;2022-09-20T06:41:13;101235.62;;;12.28;77.19
60642;BME280;46837;52.446;-1.930;2022-09-20T06:42:09;101236.91;;;12.30;77.16
60642;BME280;46837;52.446;-1.930;2022-09-20T06:43:09;101233.44;;;12.29;77.23
60642;BME280;46837;52.446;-1.930;2022-09-20T06:44:09;101232.43;;;12.31;77.25
60642;BME280;46837;52.446;-1.930;2022-09-20T06:45:09;101234.50;;;12.34;77.18
60642;BME280;46837;52.446;-1.930;2022-09-20T06:46:09;101238.38;;;12.34;77.25
60642;BME280;46837;52.446;-1.930;2022-09-20T06:47:10;101240.05;;;12.33;77.40
60642;BME280;46837;52.446;-1.930;2022-09-20T06:48:09;101239.71;;;12.27;77.80
60642;BME280;46837;52.446;-1.930;2022-09-20T06:49:11;101237.66;;;12.30;77.75
60642;BME280;46837;52.446;-1.930;2022-09-20T06:50:15;101239.89;;;12.33;77.64
60642;BME280;46837;52.446;-1.930;2022-09-20T06:51:09;101238.34;;;12.36;77.56
60642;BME280;46837;52.446;-1.930;2022-09-20T06:52:16;101239.14;;;12.38;77.55
60642;BME280;46837;52.446;-1.930;2022-09-20T06:53:13;101243.21;;;12.40;77.60
60642;BME280;46837;52.446;-1.930;2022-09-20T06:54:14;101239.18;;;12.41;77.58
60642;BME280;46837;52.446;-1.930;2022-09-20T06:55:17;101243.91;;;12.46;77.42
60642;BME280;46837;52.446;-1.930;2022-09-20T06:56:18;101243.82;;;12.48;77.52
60642;BME280;46837;52.446;-1.930;2022-09-20T06:57:09;101241.21;;;12.49;77.49
60642;BME280;46837;52.446;-1.930;2022-09-20T06:58:09;101239.48;;;12.52;77.47
60642;BME280;46837;52.446;-1.930;2022-09-20T06:59:12;101239.75;;;12.53;77.51
60642;BME280;46837;52.446;-1.930;2022-09-20T07:00:11;101239.43;;;12.56;77.43
60642;BME280;46837;52.446;-1.930;2022-09-20T07:01:09;101238.18;;;12.58;77.59
60642;BME280;46837;52.446;-1.930;2022-09-20T07:02:09;101238.57;;;12.63;77.40
60642;BME280;46837;52.446;-1.930;2022-09-20T07:03:09;101240.74;;;12.66;77.46
60642;BME280;46837;52.446;-1.930;2022-09-20T07:04:09;101239.76;;;12.66;77.56
60642;BME280;46837;52.446;-1.930;2022-09-20T07:05:16;101239.77;;;12.72;77.46
60642;BME280;46837;52.446;-1.930;2022-09-20T07:06:09;101241.18;;;12.76;77.48
60642;BME280;46837;52.446;-1.930;2022-09-20T07:07:11;101239.42;;;12.81;77.56
60642;BME280;46837;52.446;-1.930;2022-09-20T07:08:09;101240.97;;;12.87;77.40
60642;BME280;46837;52.446;-1.930;2022-09-20T07:09:10;101241.32;;;12.89;77.47
60642;BME280;46837;52.446;-1.930;2022-09-20T07:10:10;101241.11;;;12.96;77.36
60642;BME280;46837;52.446;-1.930;2022-09-20T07:11:12;101241.56;;;13.01;77.29
60642;BME280;46837;52.446;-1.930;2022-09-20T07:12:09;101242.09;;;13.04;77.35
60642;BME280;46837;52.446;-1.930;2022-09-20T07:13:09;101241.49;;;13.05;77.67
60642;BME280;46837;52.446;-1.930;2022-09-20T07:14:09;101241.68;;;13.13;77.52
60642;BME280;46837;52.446;-1.930;2022-09-20T07:15:09;101247.59;;;13.22;77.31
60642;BME280;46837;52.446;-1.930;2022-09-20T07:16:10;101245.27;;;13.31;77.17
60642;BME280;46837;52.446;-1.930;2022-09-20T07:17:09;101245.28;;;13.38;77.10
60642;BME280;46837;52.446;-1.930;2022-09-20T07:18:09;101245.62;;;13.44;77.00
60642;BME280;46837;52.446;-1.930;2022-09-20T07:19:09;101239.79;;;13.49;76.88
60642;BME280;46837;52.446;-1.930;2022-09-20T07:20:09;101241.73;;;13.60;76.67
60642;BME280;46837;52.446;-1.930;2022-09-20T07:21:13;101241.91;;;13.68;76.49
60642;BME280;46837;52.446;-1.930;2022-09-20T07:22:09;101240.29;;;13.73;76.58
60642;BME280;46837;52.446;-1.930;2022-09-20T07:23:09;101240.73;;;13.74;76.45
60642;BME280;46837;52.446;-1.930;2022-09-20T07:24:09;101240.18;;;13.81;76.34
60642;BME280;46837;52.446;-1.930;2022-09-20T07:25:09;101240.61;;;13.88;76.21
60642;BME280;46837;52.446;-1.930;2022-09-20T07:27:09;101241.79;;;13.99;76.00
60642;BME280;46837;52.446;-1.930;2022-09-20T07:28:09;101241.93;;;14.06;75.97
60642;BME280;46837;52.446;-1.930;2022-09-20T07:29:09;101242.30;;;14.11;75.79
60642;BME280;46837;52.446;-1.930;2022-09-20T07:30:09;101244.69;;;14.16;75.64
60642;BME280;46837;52.446;-1.930;2022-09-20T07:31:09;101242.53;;;14.24;75.45
60642;BME280;46837;52.446;-1.930;2022-09-20T07:32:09;101245.98;;;14.32;75.31
60642;BME280;46837;52.446;-1.930;2022-09-20T07:33:09;101245.84;;;14.38;75.12
60642;BME280;46837;52.446;-1.930;2022-09-20T07:34:09;101246.60;;;14.37;75.34
60642;BME280;46837;52.446;-1.930;2022-09-20T07:35:09;101247.34;;;14.41;75.31
60642;BME280;46837;52.446;-1.930;2022-09-20T07:36:09;101249.29;;;14.48;75.09
60642;BME280;46837;52.446;-1.930;2022-09-20T07:37:09;101248.29;;;14.51;74.95
60642;BME280;46837;52.446;-1.930;2022-09-20T07:38:09;101248.57;;;14.52;74.88
60642;BME280;46837;52.446;-1.930;2022-09-20T07:39:09;101252.25;;;14.53;74.94
60642;BME280;46837;52.446;-1.930;2022-09-20T07:40:09;101248.41;;;14.54;74.93
60642;BME280;46837;52.446;-1.930;2022-09-20T07:41:09;101248.98;;;14.59;74.88
60642;BME280;46837;52.446;-1.930;2022-09-20T07:42:09;101248.88;;;14.62;74.97
60642;BME280;46837;52.446;-1.930;2022-09-20T07:43:09;101249.88;;;14.63;74.83
60642;BME280;46837;52.446;-1.930;2022-09-20T07:44:13;101248.41;;;14.68;74.71
60642;BME280;46837;52.446;-1.930;2022-09-20T07:45:09;101250.63;;;14.75;74.63
60642;BME280;46837;52.446;-1.930;2022-09-20T07:46:09;101251.73;;;14.78;74.77
60642;BME280;46837;52.446;-1.930;2022-09-20T07:47:09;101249.27;;;14.77;74.69
60642;BME280;46837;52.446;-1.930;2022-09-20T07:48:09;101251.59;;;14.83;74.59
60642;BME280;46837;52.446;-1.930;2022-09-20T07:49:09;101252.92;;;14.88;74.58
60642;BME280;46837;52.446;-1.930;2022-09-20T07:50:09;101250.46;;;14.93;74.44
60642;BME280;46837;52.446;-1.930;2022-09-20T07:51:10;101251.97;;;14.98;74.37
60642;BME280;46837;52.446;-1.930;2022-09-20T07:52:09;101251.70;;;14.99;74.33
60642;BME280;46837;52.446;-1.930;2022-09-20T07:53:09;101253.56;;;15.03;74.21
60642;BME280;46837;52.446;-1.930;2022-09-20T07:54:09;101252.31;;;15.05;74.13
60642;BME280;46837;52.446;-1.930;2022-09-20T07:55:09;101255.61;;;15.10;74.14
60642;BME280;46837;52.446;-1.930;2022-09-20T07:56:14;101256.68;;;15.13;73.99
60642;BME280;46837;52.446;-1.930;2022-09-20T07:57:09;101254.35;;;15.16;73.82
60642;BME280;46837;52.446;-1.930;2022-09-20T07:58:09;101258.39;;;15.18;73.86
60642;BME280;46837;52.446;-1.930;2022-09-20T07:59:09;101257.57;;;15.26;73.66
60642;BME280;46837;52.446;-1.930;2022-09-20T08:00:10;101257.57;;;15.25;73.71
60642;BME280;46837;52.446;-1.930;2022-09-20T08:01:10;101259.78;;;15.32;73.54
60642;BME280;46837;52.446;-1.930;2022-09-20T08:02:13;101260.12;;;15.37;73.38
60642;BME280;46837;52.446;-1.930;2022-09-20T08:03:09;101256.48;;;15.36;73.24
60642;BME280;46837;52.446;-1.930;2022-09-20T08:04:09;101258.02;;;15.38;73.31
60642;BME280;46837;52.446;-1.930;2022-09-20T08:05:09;101255.77;;;15.40;73.38
60642;BME280;46837;52.446;-1.930;2022-09-20T08:06:09;101256.27;;;15.44;73.10
60642;BME280;46837;52.446;-1.930;2022-09-20T08:07:09;101259.18;;;15.47;73.07
60642;BME280;46837;52.446;-1.930;2022-09-20T08:08:09;101261.66;;;15.46;73.07
60642;BME280;46837;52.446;-1.930;2022-09-20T08:09:09;101257.20;;;15.47;72.97
60642;BME280;46837;52.446;-1.930;2022-09-20T08:10:09;101257.80;;;15.50;72.87
60642;BME280;46837;52.446;-1.930;2022-09-20T08:11:10;101253.57;;;15.51;72.81
60642;BME280;46837;52.446;-1.930;2022-09-20T08:12:09;101254.66;;;15.54;72.65
60642;BME280;46837;52.446;-1.930;2022-09-20T08:13:09;101256.70;;;15.53;72.71
60642;BME280;46837;52.446;-1.930;2022-09-20T08:14:12;101256.59;;;15.56;72.61
60642;BME280;46837;52.446;-1.930;2022-09-20T08:15:09;101257.36;;;15.57;72.63
60642;BME280;46837;52.446;-1.930;2022-09-20T08:16:09;101255.77;;;15.58;72.71
60642;BME280;46837;52.446;-1.930;2022-09-20T08:17:09;101255.55;;;15.61;72.57
60642;BME280;46837;52.446;-1.930;2022-09-20T08:18:09;101257.15;;;15.65;72.50
60642;BME280;46837;52.446;-1.930;2022-09-20T08:19:12;101258.70;;;15.69;72.58
60642;BME280;46837;52.446;-1.930;2022-09-20T08:20:09;101258.16;;;15.72;72.46
60642;BME280;46837;52.446;-1.930;2022-09-20T08:21:09;101259.59;;;15.78;72.29
60642;BME280;46837;52.446;-1.930;2022-09-20T08:22:09;101257.71;;;15.77;72.53
60642;BME280;46837;52.446;-1.930;2022-09-20T08:23:09;101259.09;;;15.73;72.45
60642;BME280;46837;52.446;-1.930;2022-09-20T08:24:09;101259.47;;;15.81;72.24
60642;BME280;46837;52.446;-1.930;2022-09-20T08:25:09;101263.32;;;15.87;72.04
60642;BME280;46837;52.446;-1.930;2022-09-20T08:26:10;101262.70;;;15.94;71.99
60642;BME280;46837;52.446;-1.930;2022-09-20T08:27:09;101256.70;;;15.95;71.82
60642;BME280;46837;52.446;-1.930;2022-09-20T08:28:09;101258.88;;;16.06;71.63
60642;BME280;46837;52.446;-1.930;2022-09-20T08:29:09;101260.86;;;16.10;71.45
60642;BME280;46837;52.446;-1.930;2022-09-20T08:30:09;101261.66;;;16.18;71.21
60642;BME280;46837;52.446;-1.930;2022-09-20T08:31:10;101257.72;;;16.26;70.92
60642;BME280;46837;52.446;-1.930;2022-09-20T08:32:09;101260.20;;;16.26;70.90
60642;BME280;46837;52.446;-1.930;2022-09-20T08:33:09;101262.06;;;16.35;70.62
60642;BME280;46837;52.446;-1.930;2022-09-20T08:34:10;101259.50;;;16.40;70.30
60642;BME280;46837;52.446;-1.930;2022-09-20T08:35:09;101260.91;;;16.43;70.04
60642;BME280;46837;52.446;-1.930;2022-09-20T08:36:11;101261.82;;;16.56;70.19
60642;BME280;46837;52.446;-1.930;2022-09-20T08:37:09;101264.42;;;16.66;69.41
60642;BME280;46837;52.446;-1.930;2022-09-20T08:38:09;101264.07;;;16.70;68.86
60642;BME280;46837;52.446;-1.930;2022-09-20T08:39:09;101264.51;;;16.77;68.55
60642;BME280;46837;52.446;-1.930;2022-09-20T08:40:11;101264.34;;;16.86;68.32
60642;BME280;46837;52.446;-1.930;2022-09-20T08:41:14;101265.87;;;16.91;68.21
60642;BME280;46837;52.446;-1.930;2022-09-20T08:43:09;101263.84;;;16.98;67.44
60642;BME280;46837;52.446;-1.930;2022-09-20T08:44:56;101266.20;;;17.01;67.26
60642;BME280;46837;52.446;-1.930;2022-09-20T08:45:16;101265.98;;;16.99;67.13
60642;BME280;46837;52.446;-1.930;2022-09-20T08:46:13;101272.46;;;16.98;66.99
60642;BME280;46837;52.446;-1.930;2022-09-20T08:48:12;101266.97;;;17.01;66.85
60642;BME280;46837;52.446;-1.930;2022-09-20T08:49:12;101268.88;;;17.03;66.91
60642;BME280;46837;52.446;-1.930;2022-09-20T08:50:10;101271.58;;;16.96;67.00